Decoded Metar for RJGG (NAGOYA/CHUBU in JAPAN) (IATA:NGO) | Meteo·Mobile Aviation Weather
aviador You're here:

RJGG Decoded Metar

NAGOYA/CHUBU in JAPAN
Report Time2018-11-21 18:00:00
UTC Time2018-11-21 18:16:31
Flight Rules vfr VFR
Wind350° at 12 kt
W.Decomp.*RWY 36: 12.0 kt HW 0.6 kt LCW
W.Rank350° ranks 4
Current wind is above 350° avg. (9.4)
Visibility9999 m
Phenomena:N/A
Clouds:Few 030 Hf
Broken 150 Hf
Expected CloudBase > 2,400 ft AGL from Temp-Dew spread
Ceiling15,000 ft
Temp13°C (ISA -2)
Dew Point07°C (67% RH)
AAT8.0°C
QNH1015 hPa
Density Alt-151 ft
Elevation16 ft
Report Wrong Elevation
Raw Report
METAR RJGG 211800Z 35012KT 9999 FEW030 BKN150 BKN/// 13/07 Q1015
NOSIG=

Extra information for RJGG:More info

Metar Taf Metar & Taf Last 4 Metars F.Rules Stats Wind Profile Meteogram Temp Stats Airport Information Weather charts Add Link Nearby VenuesMetar ALERT Operation Metar Decoded Social comments